sensor_id;sensor_type;location;lat;lon;timestamp;P1;durP1;ratioP1;P2;durP2;ratioP2
60724;SDS011;59881;36.722;-4.462;2023-07-13T00:02:16;0.65;;;0.40;;
60724;SDS011;59881;36.722;-4.462;2023-07-13T00:04:41;0.30;;;0.20;;
60724;SDS011;59881;36.722;-4.462;2023-07-13T00:07:07;0.75;;;0.40;;
60724;SDS011;59881;36.722;-4.462;2023-07-13T00:09:34;0.65;;;0.32;;
60724;SDS011;59881;36.722;-4.462;2023-07-13T00:11:59;0.70;;;0.43;;
60724;SDS011;59881;36.722;-4.462;2023-07-13T00:14:26;0.30;;;0.25;;
60724;SDS011;59881;36.722;-4.462;2023-07-13T00:16:53;1.20;;;0.60;;
60724;SDS011;59881;36.722;-4.462;2023-07-13T00:19:19;3.80;;;0.77;;
60724;SDS011;59881;36.722;-4.462;2023-07-13T00:21:45;0.82;;;0.45;;
60724;SDS011;59881;36.722;-4.462;2023-07-13T00:24:11;0.10;;;0.10;;
60724;SDS011;59881;36.722;-4.462;2023-07-13T00:26:39;0.32;;;0.20;;
60724;SDS011;59881;36.722;-4.462;2023-07-13T00:29:05;0.20;;;0.20;;
60724;SDS011;59881;36.722;-4.462;2023-07-13T00:31:34;0.63;;;0.45;;
60724;SDS011;59881;36.722;-4.462;2023-07-13T00:34:00;0.22;;;0.22;;
60724;SDS011;59881;36.722;-4.462;2023-07-13T00:36:26;0.10;;;0.10;;
60724;SDS011;59881;36.722;-4.462;2023-07-13T00:38:52;0.15;;;0.15;;
60724;SDS011;59881;36.722;-4.462;2023-07-13T00:41:18;1.35;;;0.40;;
60724;SDS011;59881;36.722;-4.462;2023-07-13T00:43:44;0.35;;;0.30;;
60724;SDS011;59881;36.722;-4.462;2023-07-13T00:46:20;0.13;;;0.13;;
60724;SDS011;59881;36.722;-4.462;2023-07-13T00:48:48;0.25;;;0.20;;
60724;SDS011;59881;36.722;-4.462;2023-07-13T00:51:21;0.90;;;0.50;;
60724;SDS011;59881;36.722;-4.462;2023-07-13T00:53:50;0.20;;;0.20;;
60724;SDS011;59881;36.722;-4.462;2023-07-13T00:56:19;0.20;;;0.20;;
60724;SDS011;59881;36.722;-4.462;2023-07-13T00:58:45;0.45;;;0.38;;
60724;SDS011;59881;36.722;-4.462;2023-07-13T01:01:11;0.20;;;0.20;;
60724;SDS011;59881;36.722;-4.462;2023-07-13T01:03:38;0.55;;;0.45;;
60724;SDS011;59881;36.722;-4.462;2023-07-13T01:06:05;0.25;;;0.20;;
60724;SDS011;59881;36.722;-4.462;2023-07-13T01:08:31;1.58;;;0.75;;
60724;SDS011;59881;36.722;-4.462;2023-07-13T01:10:57;0.50;;;0.38;;
60724;SDS011;59881;36.722;-4.462;2023-07-13T01:13:23;0.35;;;0.20;;
60724;SDS011;59881;36.722;-4.462;2023-07-13T01:15:50;0.40;;;0.40;;
60724;SDS011;59881;36.722;-4.462;2023-07-13T01:18:21;0.25;;;0.20;;
60724;SDS011;59881;36.722;-4.462;2023-07-13T01:23:25;0.73;;;0.22;;
60724;SDS011;59881;36.722;-4.462;2023-07-13T01:25:52;0.20;;;0.20;;
60724;SDS011;59881;36.722;-4.462;2023-07-13T01:28:18;1.08;;;0.38;;
60724;SDS011;59881;36.722;-4.462;2023-07-13T01:30:44;6.07;;;1.15;;
60724;SDS011;59881;36.722;-4.462;2023-07-13T01:33:15;0.20;;;0.20;;
60724;SDS011;59881;36.722;-4.462;2023-07-13T01:35:42;0.25;;;0.20;;
60724;SDS011;59881;36.722;-4.462;2023-07-13T01:38:09;0.93;;;0.43;;
60724;SDS011;59881;36.722;-4.462;2023-07-13T01:40:36;0.10;;;0.10;;
60724;SDS011;59881;36.722;-4.462;2023-07-13T01:43:02;1.15;;;0.25;;
60724;SDS011;59881;36.722;-4.462;2023-07-13T01:45:28;0.38;;;0.38;;
60724;SDS011;59881;36.722;-4.462;2023-07-13T01:47:53;0.30;;;0.30;;
60724;SDS011;59881;36.722;-4.462;2023-07-13T01:50:19;0.10;;;0.10;;
60724;SDS011;59881;36.722;-4.462;2023-07-13T01:52:44;0.45;;;0.15;;
60724;SDS011;59881;36.722;-4.462;2023-07-13T01:55:10;0.98;;;0.32;;
60724;SDS011;59881;36.722;-4.462;2023-07-13T01:57:35;0.50;;;0.30;;
60724;SDS011;59881;36.722;-4.462;2023-07-13T02:00:02;0.43;;;0.30;;
60724;SDS011;59881;36.722;-4.462;2023-07-13T02:02:30;0.10;;;0.10;;
60724;SDS011;59881;36.722;-4.462;2023-07-13T02:04:56;0.88;;;0.40;;
60724;SDS011;59881;36.722;-4.462;2023-07-13T02:07:21;0.70;;;0.40;;
60724;SDS011;59881;36.722;-4.462;2023-07-13T02:09:47;0.63;;;0.30;;
60724;SDS011;59881;36.722;-4.462;2023-07-13T02:12:13;0.20;;;0.20;;
60724;SDS011;59881;36.722;-4.462;2023-07-13T02:14:38;0.65;;;0.30;;
60724;SDS011;59881;36.722;-4.462;2023-07-13T02:17:04;0.40;;;0.25;;
60724;SDS011;59881;36.722;-4.462;2023-07-13T02:19:30;0.13;;;0.13;;
60724;SDS011;59881;36.722;-4.462;2023-07-13T02:21:56;0.38;;;0.30;;
60724;SDS011;59881;36.722;-4.462;2023-07-13T02:24:22;0.10;;;0.10;;
60724;SDS011;59881;36.722;-4.462;2023-07-13T02:26:47;0.20;;;0.20;;
60724;SDS011;59881;36.722;-4.462;2023-07-13T02:29:13;0.57;;;0.32;;
60724;SDS011;59881;36.722;-4.462;2023-07-13T02:31:39;0.38;;;0.30;;
60724;SDS011;59881;36.722;-4.462;2023-07-13T02:34:04;0.50;;;0.30;;
60724;SDS011;59881;36.722;-4.462;2023-07-13T02:36:30;3.33;;;0.82;;
60724;SDS011;59881;36.722;-4.462;2023-07-13T02:38:57;0.73;;;0.40;;
60724;SDS011;59881;36.722;-4.462;2023-07-13T02:41:26;0.77;;;0.47;;
60724;SDS011;59881;36.722;-4.462;2023-07-13T02:43:52;2.05;;;0.55;;
60724;SDS011;59881;36.722;-4.462;2023-07-13T02:46:17;0.55;;;0.25;;
60724;SDS011;59881;36.722;-4.462;2023-07-13T02:48:44;1.77;;;0.50;;
60724;SDS011;59881;36.722;-4.462;2023-07-13T02:51:10;0.35;;;0.30;;
60724;SDS011;59881;36.722;-4.462;2023-07-13T02:53:36;0.30;;;0.28;;
60724;SDS011;59881;36.722;-4.462;2023-07-13T02:56:03;0.10;;;0.10;;
60724;SDS011;59881;36.722;-4.462;2023-07-13T02:58:29;0.30;;;0.30;;
60724;SDS011;59881;36.722;-4.462;2023-07-13T03:00:55;0.22;;;0.22;;
60724;SDS011;59881;36.722;-4.462;2023-07-13T03:03:21;0.57;;;0.50;;
60724;SDS011;59881;36.722;-4.462;2023-07-13T03:05:47;1.02;;;0.30;;
60724;SDS011;59881;36.722;-4.462;2023-07-13T03:08:15;0.47;;;0.20;;
60724;SDS011;59881;36.722;-4.462;2023-07-13T03:10:41;0.85;;;0.55;;
60724;SDS011;59881;36.722;-4.462;2023-07-13T03:13:06;1.67;;;0.35;;
60724;SDS011;59881;36.722;-4.462;2023-07-13T03:15:32;0.15;;;0.15;;
60724;SDS011;59881;36.722;-4.462;2023-07-13T03:17:57;0.73;;;0.32;;
60724;SDS011;59881;36.722;-4.462;2023-07-13T03:20:22;0.73;;;0.30;;
60724;SDS011;59881;36.722;-4.462;2023-07-13T03:22:48;0.40;;;0.30;;
60724;SDS011;59881;36.722;-4.462;2023-07-13T03:25:13;0.15;;;0.15;;
60724;SDS011;59881;36.722;-4.462;2023-07-13T03:27:39;0.30;;;0.30;;
60724;SDS011;59881;36.722;-4.462;2023-07-13T03:30:05;0.60;;;0.43;;
60724;SDS011;59881;36.722;-4.462;2023-07-13T03:32:31;0.28;;;0.28;;
60724;SDS011;59881;36.722;-4.462;2023-07-13T03:34:57;0.20;;;0.20;;
60724;SDS011;59881;36.722;-4.462;2023-07-13T03:37:22;1.17;;;0.52;;
60724;SDS011;59881;36.722;-4.462;2023-07-13T03:39:48;1.25;;;0.45;;
60724;SDS011;59881;36.722;-4.462;2023-07-13T03:42:13;0.43;;;0.30;;
60724;SDS011;59881;36.722;-4.462;2023-07-13T03:44:39;0.75;;;0.35;;
60724;SDS011;59881;36.722;-4.462;2023-07-13T03:47:06;0.43;;;0.32;;
60724;SDS011;59881;36.722;-4.462;2023-07-13T03:49:34;0.20;;;0.20;;
60724;SDS011;59881;36.722;-4.462;2023-07-13T03:52:00;0.20;;;0.20;;
60724;SDS011;59881;36.722;-4.462;2023-07-13T03:54:26;0.10;;;0.10;;
60724;SDS011;59881;36.722;-4.462;2023-07-13T03:56:51;0.52;;;0.47;;
60724;SDS011;59881;36.722;-4.462;2023-07-13T03:59:17;0.52;;;0.38;;
60724;SDS011;59881;36.722;-4.462;2023-07-13T04:01:43;0.38;;;0.38;;
60724;SDS011;59881;36.722;-4.462;2023-07-13T04:04:08;0.10;;;0.10;;
60724;SDS011;59881;36.722;-4.462;2023-07-13T04:06:34;0.28;;;0.28;;
60724;SDS011;59881;36.722;-4.462;2023-07-13T04:09:00;1.10;;;0.50;;
60724;SDS011;59881;36.722;-4.462;2023-07-13T04:11:29;0.20;;;0.20;;
60724;SDS011;59881;36.722;-4.462;2023-07-13T04:13:56;0.20;;;0.20;;
60724;SDS011;59881;36.722;-4.462;2023-07-13T04:16:22;0.82;;;0.60;;
60724;SDS011;59881;36.722;-4.462;2023-07-13T04:18:48;0.50;;;0.40;;
60724;SDS011;59881;36.722;-4.462;2023-07-13T04:21:14;0.55;;;0.43;;
60724;SDS011;59881;36.722;-4.462;2023-07-13T04:23:40;0.50;;;0.50;;
60724;SDS011;59881;36.722;-4.462;2023-07-13T04:26:06;0.30;;;0.30;;
60724;SDS011;59881;36.722;-4.462;2023-07-13T04:28:32;0.43;;;0.28;;
60724;SDS011;59881;36.722;-4.462;2023-07-13T04:30:59;0.52;;;0.38;;
60724;SDS011;59881;36.722;-4.462;2023-07-13T04:33:25;0.35;;;0.20;;
60724;SDS011;59881;36.722;-4.462;2023-07-13T04:35:52;0.50;;;0.25;;
60724;SDS011;59881;36.722;-4.462;2023-07-13T04:38:26;2.95;;;0.50;;
60724;SDS011;59881;36.722;-4.462;2023-07-13T04:40:57;0.50;;;0.32;;
60724;SDS011;59881;36.722;-4.462;2023-07-13T04:43:25;0.90;;;0.40;;
60724;SDS011;59881;36.722;-4.462;2023-07-13T04:45:51;0.10;;;0.10;;
60724;SDS011;59881;36.722;-4.462;2023-07-13T04:48:17;0.30;;;0.30;;
60724;SDS011;59881;36.722;-4.462;2023-07-13T04:50:43;0.45;;;0.45;;
60724;SDS011;59881;36.722;-4.462;2023-07-13T04:53:10;2.88;;;0.63;;
60724;SDS011;59881;36.722;-4.462;2023-07-13T04:55:36;0.40;;;0.30;;
60724;SDS011;59881;36.722;-4.462;2023-07-13T04:58:02;0.40;;;0.20;;
60724;SDS011;59881;36.722;-4.462;2023-07-13T05:00:29;2.35;;;0.57;;
60724;SDS011;59881;36.722;-4.462;2023-07-13T05:02:55;0.55;;;0.52;;
60724;SDS011;59881;36.722;-4.462;2023-07-13T05:05:22;0.57;;;0.35;;
60724;SDS011;59881;36.722;-4.462;2023-07-13T05:07:48;2.30;;;0.30;;
60724;SDS011;59881;36.722;-4.462;2023-07-13T05:10:13;1.42;;;0.55;;
60724;SDS011;59881;36.722;-4.462;2023-07-13T05:12:39;0.20;;;0.20;;
60724;SDS011;59881;36.722;-4.462;2023-07-13T05:15:05;0.45;;;0.40;;
60724;SDS011;59881;36.722;-4.462;2023-07-13T05:17:31;1.45;;;0.43;;
60724;SDS011;59881;36.722;-4.462;2023-07-13T05:19:56;0.20;;;0.20;;
60724;SDS011;59881;36.722;-4.462;2023-07-13T05:22:22;0.77;;;0.43;;
60724;SDS011;59881;36.722;-4.462;2023-07-13T05:24:47;1.05;;;0.50;;
60724;SDS011;59881;36.722;-4.462;2023-07-13T05:27:13;1.85;;;0.50;;
60724;SDS011;59881;36.722;-4.462;2023-07-13T05:29:38;0.35;;;0.25;;
60724;SDS011;59881;36.722;-4.462;2023-07-13T05:32:04;1.65;;;0.63;;
60724;SDS011;59881;36.722;-4.462;2023-07-13T05:34:30;0.20;;;0.20;;
60724;SDS011;59881;36.722;-4.462;2023-07-13T05:36:55;0.32;;;0.32;;
60724;SDS011;59881;36.722;-4.462;2023-07-13T05:39:21;0.40;;;0.32;;
60724;SDS011;59881;36.722;-4.462;2023-07-13T05:41:47;0.40;;;0.28;;
60724;SDS011;59881;36.722;-4.462;2023-07-13T05:44:12;0.70;;;0.50;;
60724;SDS011;59881;36.722;-4.462;2023-07-13T05:46:38;8.57;;;0.80;;
60724;SDS011;59881;36.722;-4.462;2023-07-13T05:49:03;1.15;;;0.82;;
60724;SDS011;59881;36.722;-4.462;2023-07-13T05:51:29;0.38;;;0.32;;
60724;SDS011;59881;36.722;-4.462;2023-07-13T05:53:55;0.52;;;0.40;;
60724;SDS011;59881;36.722;-4.462;2023-07-13T05:56:20;0.28;;;0.20;;
60724;SDS011;59881;36.722;-4.462;2023-07-13T05:58:47;0.22;;;0.22;;
60724;SDS011;59881;36.722;-4.462;2023-07-13T06:01:14;3.55;;;0.68;;
60724;SDS011;59881;36.722;-4.462;2023-07-13T06:03:40;1.15;;;0.65;;
60724;SDS011;59881;36.722;-4.462;2023-07-13T06:06:07;2.35;;;0.57;;
60724;SDS011;59881;36.722;-4.462;2023-07-13T06:08:34;0.73;;;0.55;;
60724;SDS011;59881;36.722;-4.462;2023-07-13T06:11:06;0.68;;;0.50;;
60724;SDS011;59881;36.722;-4.462;2023-07-13T06:13:35;0.40;;;0.40;;
60724;SDS011;59881;36.722;-4.462;2023-07-13T06:16:01;2.25;;;0.50;;
60724;SDS011;59881;36.722;-4.462;2023-07-13T06:18:30;1.58;;;0.70;;
60724;SDS011;59881;36.722;-4.462;2023-07-13T06:20:56;1.00;;;0.73;;
60724;SDS011;59881;36.722;-4.462;2023-07-13T06:23:22;1.40;;;0.95;;
60724;SDS011;59881;36.722;-4.462;2023-07-13T06:25:48;1.00;;;0.60;;
60724;SDS011;59881;36.722;-4.462;2023-07-13T06:28:14;0.75;;;0.52;;
60724;SDS011;59881;36.722;-4.462;2023-07-13T06:30:39;0.70;;;0.70;;
60724;SDS011;59881;36.722;-4.462;2023-07-13T06:33:05;0.32;;;0.25;;
60724;SDS011;59881;36.722;-4.462;2023-07-13T06:35:31;7.28;;;0.65;;
60724;SDS011;59881;36.722;-4.462;2023-07-13T06:37:56;1.52;;;0.55;;
60724;SDS011;59881;36.722;-4.462;2023-07-13T06:40:22;0.38;;;0.35;;
60724;SDS011;59881;36.722;-4.462;2023-07-13T06:42:48;0.77;;;0.47;;
60724;SDS011;59881;36.722;-4.462;2023-07-13T06:45:13;0.65;;;0.52;;
60724;SDS011;59881;36.722;-4.462;2023-07-13T06:47:39;1.92;;;1.27;;
60724;SDS011;59881;36.722;-4.462;2023-07-13T06:50:04;4.85;;;1.55;;
60724;SDS011;59881;36.722;-4.462;2023-07-13T06:52:30;0.43;;;0.28;;
60724;SDS011;59881;36.722;-4.462;2023-07-13T06:54:56;0.90;;;0.75;;
60724;SDS011;59881;36.722;-4.462;2023-07-13T06:57:21;3.40;;;1.10;;
60724;SDS011;59881;36.722;-4.462;2023-07-13T06:59:47;1.75;;;0.93;;
60724;SDS011;59881;36.722;-4.462;2023-07-13T07:02:13;2.15;;;0.60;;
60724;SDS011;59881;36.722;-4.462;2023-07-13T07:04:39;0.82;;;0.45;;
60724;SDS011;59881;36.722;-4.462;2023-07-13T07:07:04;1.55;;;0.88;;
60724;SDS011;59881;36.722;-4.462;2023-07-13T07:09:30;2.67;;;0.88;;
60724;SDS011;59881;36.722;-4.462;2023-07-13T07:11:56;0.70;;;0.65;;
60724;SDS011;59881;36.722;-4.462;2023-07-13T07:14:22;2.10;;;0.95;;
60724;SDS011;59881;36.722;-4.462;2023-07-13T07:16:48;1.90;;;0.82;;
60724;SDS011;59881;36.722;-4.462;2023-07-13T07:19:15;0.88;;;0.60;;
60724;SDS011;59881;36.722;-4.462;2023-07-13T07:21:41;0.85;;;0.73;;
60724;SDS011;59881;36.722;-4.462;2023-07-13T07:24:06;2.35;;;0.88;;
60724;SDS011;59881;36.722;-4.462;2023-07-13T07:26:32;1.48;;;0.88;;
60724;SDS011;59881;36.722;-4.462;2023-07-13T07:28:58;2.33;;;1.15;;
60724;SDS011;59881;36.722;-4.462;2023-07-13T07:31:24;4.15;;;1.38;;
60724;SDS011;59881;36.722;-4.462;2023-07-13T07:33:49;1.17;;;0.82;;
60724;SDS011;59881;36.722;-4.462;2023-07-13T07:36:15;0.65;;;0.50;;
60724;SDS011;59881;36.722;-4.462;2023-07-13T07:38:41;0.70;;;0.50;;
60724;SDS011;59881;36.722;-4.462;2023-07-13T07:41:07;3.40;;;0.60;;
60724;SDS011;59881;36.722;-4.462;2023-07-13T07:43:33;0.93;;;0.82;;
60724;SDS011;59881;36.722;-4.462;2023-07-13T07:45:59;0.35;;;0.35;;
60724;SDS011;59881;36.722;-4.462;2023-07-13T07:48:24;1.42;;;0.70;;
60724;SDS011;59881;36.722;-4.462;2023-07-13T07:50:50;1.75;;;0.73;;
60724;SDS011;59881;36.722;-4.462;2023-07-13T07:53:15;3.25;;;1.23;;
60724;SDS011;59881;36.722;-4.462;2023-07-13T07:55:41;2.40;;;0.70;;
60724;SDS011;59881;36.722;-4.462;2023-07-13T07:58:06;5.00;;;1.65;;
60724;SDS011;59881;36.722;-4.462;2023-07-13T08:00:32;1.45;;;0.80;;
60724;SDS011;59881;36.722;-4.462;2023-07-13T08:02:58;1.08;;;0.82;;
60724;SDS011;59881;36.722;-4.462;2023-07-13T08:05:24;0.90;;;0.63;;
60724;SDS011;59881;36.722;-4.462;2023-07-13T08:07:50;2.65;;;1.15;;
60724;SDS011;59881;36.722;-4.462;2023-07-13T08:10:16;0.77;;;0.68;;
60724;SDS011;59881;36.722;-4.462;2023-07-13T08:12:41;4.03;;;0.85;;
60724;SDS011;59881;36.722;-4.462;2023-07-13T08:15:09;1.17;;;0.95;;
60724;SDS011;59881;36.722;-4.462;2023-07-13T08:17:37;1.45;;;0.70;;
60724;SDS011;59881;36.722;-4.462;2023-07-13T08:20:02;0.50;;;0.43;;
60724;SDS011;59881;36.722;-4.462;2023-07-13T08:22:29;1.13;;;0.65;;
60724;SDS011;59881;36.722;-4.462;2023-07-13T08:24:54;1.38;;;0.98;;
60724;SDS011;59881;36.722;-4.462;2023-07-13T08:27:23;2.50;;;1.70;;
60724;SDS011;59881;36.722;-4.462;2023-07-13T08:29:49;6.07;;;1.30;;
60724;SDS011;59881;36.722;-4.462;2023-07-13T08:32:15;0.98;;;0.60;;
60724;SDS011;59881;36.722;-4.462;2023-07-13T08:34:41;1.13;;;0.70;;
60724;SDS011;59881;36.722;-4.462;2023-07-13T08:37:07;1.52;;;1.23;;
60724;SDS011;59881;36.722;-4.462;2023-07-13T08:39:33;1.27;;;0.80;;
60724;SDS011;59881;36.722;-4.462;2023-07-13T08:42:04;2.58;;;1.67;;
60724;SDS011;59881;36.722;-4.462;2023-07-13T08:47:14;1.90;;;0.90;;
60724;SDS011;59881;36.722;-4.462;2023-07-13T08:49:41;4.97;;;1.08;;
60724;SDS011;59881;36.722;-4.462;2023-07-13T08:52:51;1.83;;;1.08;;
60724;SDS011;59881;36.722;-4.462;2023-07-13T08:57:43;3.17;;;1.25;;
60724;SDS011;59881;36.722;-4.462;2023-07-13T09:00:13;1.40;;;0.88;;
60724;SDS011;59881;36.722;-4.462;2023-07-13T09:02:53;1.50;;;0.95;;
60724;SDS011;59881;36.722;-4.462;2023-07-13T09:05:26;1.27;;;1.15;;
60724;SDS011;59881;36.722;-4.462;2023-07-13T09:11:08;1.58;;;0.90;;
60724;SDS011;59881;36.722;-4.462;2023-07-13T09:18:39;4.20;;;1.30;;
60724;SDS011;59881;36.722;-4.462;2023-07-13T09:21:10;2.92;;;0.80;;
60724;SDS011;59881;36.722;-4.462;2023-07-13T09:23:38;1.88;;;1.35;;
60724;SDS011;59881;36.722;-4.462;2023-07-13T09:28:57;1.55;;;1.15;;
60724;SDS011;59881;36.722;-4.462;2023-07-13T09:31:46;2.72;;;1.55;;
60724;SDS011;59881;36.722;-4.462;2023-07-13T09:34:17;1.80;;;1.23;;
60724;SDS011;59881;36.722;-4.462;2023-07-13T09:36:42;3.45;;;1.92;;
60724;SDS011;59881;36.722;-4.462;2023-07-13T09:39:29;2.88;;;1.73;;
60724;SDS011;59881;36.722;-4.462;2023-07-13T09:47:01;2.07;;;1.60;;
60724;SDS011;59881;36.722;-4.462;2023-07-13T09:49:34;6.50;;;1.88;;
60724;SDS011;59881;36.722;-4.462;2023-07-13T09:52:05;2.70;;;1.10;;
60724;SDS011;59881;36.722;-4.462;2023-07-13T09:54:35;3.45;;;1.92;;
60724;SDS011;59881;36.722;-4.462;2023-07-13T09:57:02;1.60;;;1.05;;
60724;SDS011;59881;36.722;-4.462;2023-07-13T09:59:44;2.83;;;1.50;;
60724;SDS011;59881;36.722;-4.462;2023-07-13T10:02:23;0.77;;;0.70;;
60724;SDS011;59881;36.722;-4.462;2023-07-13T10:05:11;2.50;;;1.63;;
60724;SDS011;59881;36.722;-4.462;2023-07-13T10:07:43;5.85;;;1.33;;
60724;SDS011;59881;36.722;-4.462;2023-07-13T10:10:14;4.53;;;1.98;;
60724;SDS011;59881;36.722;-4.462;2023-07-13T10:12:42;5.90;;;1.33;;
60724;SDS011;59881;36.722;-4.462;2023-07-13T10:15:30;2.00;;;1.23;;
60724;SDS011;59881;36.722;-4.462;2023-07-13T10:17:55;4.00;;;2.13;;
60724;SDS011;59881;36.722;-4.462;2023-07-13T10:20:23;3.97;;;1.45;;
60724;SDS011;59881;36.722;-4.462;2023-07-13T10:22:55;1.63;;;1.17;;
60724;SDS011;59881;36.722;-4.462;2023-07-13T10:25:37;3.75;;;1.98;;
60724;SDS011;59881;36.722;-4.462;2023-07-13T10:28:11;3.90;;;1.45;;
60724;SDS011;59881;36.722;-4.462;2023-07-13T10:30:50;1.85;;;1.52;;
60724;SDS011;59881;36.722;-4.462;2023-07-13T10:33:18;2.05;;;1.35;;
60724;SDS011;59881;36.722;-4.462;2023-07-13T10:35:45;3.42;;;1.55;;
60724;SDS011;59881;36.722;-4.462;2023-07-13T10:38:20;5.53;;;2.90;;
60724;SDS011;59881;36.722;-4.462;2023-07-13T10:40:58;1.88;;;1.40;;
60724;SDS011;59881;36.722;-4.462;2023-07-13T10:43:31;1.92;;;1.40;;
60724;SDS011;59881;36.722;-4.462;2023-07-13T10:46:04;4.80;;;2.20;;
60724;SDS011;59881;36.722;-4.462;2023-07-13T10:48:33;3.58;;;2.20;;
60724;SDS011;59881;36.722;-4.462;2023-07-13T10:51:01;6.07;;;1.70;;
60724;SDS011;59881;36.722;-4.462;2023-07-13T10:53:33;3.75;;;1.73;;
60724;SDS011;59881;36.722;-4.462;2023-07-13T10:56:05;2.20;;;1.83;;
60724;SDS011;59881;36.722;-4.462;2023-07-13T10:58:44;4.85;;;1.77;;
60724;SDS011;59881;36.722;-4.462;2023-07-13T11:01:15;5.03;;;1.45;;
60724;SDS011;59881;36.722;-4.462;2023-07-13T11:03:54;4.35;;;2.28;;
60724;SDS011;59881;36.722;-4.462;2023-07-13T11:08:59;5.13;;;2.30;;
60724;SDS011;59881;36.722;-4.462;2023-07-13T11:11:44;3.17;;;2.10;;
60724;SDS011;59881;36.722;-4.462;2023-07-13T11:17:23;3.55;;;1.88;;
60724;SDS011;59881;36.722;-4.462;2023-07-13T11:19:50;5.13;;;2.65;;
60724;SDS011;59881;36.722;-4.462;2023-07-13T11:22:21;2.15;;;1.73;;
60724;SDS011;59881;36.722;-4.462;2023-07-13T11:24:51;2.25;;;1.58;;
60724;SDS011;59881;36.722;-4.462;2023-07-13T11:27:35;3.92;;;1.88;;
60724;SDS011;59881;36.722;-4.462;2023-07-13T11:30:07;5.45;;;2.92;;
60724;SDS011;59881;36.722;-4.462;2023-07-13T11:32:43;4.40;;;3.35;;
60724;SDS011;59881;36.722;-4.462;2023-07-13T11:35:12;5.55;;;2.53;;
60724;SDS011;59881;36.722;-4.462;2023-07-13T11:37:42;3.73;;;2.30;;
60724;SDS011;59881;36.722;-4.462;2023-07-13T11:40:12;7.82;;;2.17;;
60724;SDS011;59881;36.722;-4.462;2023-07-13T11:42:39;5.78;;;2.42;;
60724;SDS011;59881;36.722;-4.462;2023-07-13T11:45:12;4.35;;;2.72;;
60724;SDS011;59881;36.722;-4.462;2023-07-13T11:47:49;3.08;;;1.90;;
60724;SDS011;59881;36.722;-4.462;2023-07-13T11:50:21;8.05;;;2.60;;
60724;SDS011;59881;36.722;-4.462;2023-07-13T11:52:50;3.85;;;2.25;;
60724;SDS011;59881;36.722;-4.462;2023-07-13T11:55:20;2.83;;;1.80;;
60724;SDS011;59881;36.722;-4.462;2023-07-13T11:57:55;6.28;;;2.05;;
60724;SDS011;59881;36.722;-4.462;2023-07-13T12:00:25;4.60;;;2.55;;
60724;SDS011;59881;36.722;-4.462;2023-07-13T12:02:54;6.65;;;2.85;;
60724;SDS011;59881;36.722;-4.462;2023-07-13T12:05:22;5.82;;;2.70;;
60724;SDS011;59881;36.722;-4.462;2023-07-13T12:07:50;4.20;;;1.92;;
60724;SDS011;59881;36.722;-4.462;2023-07-13T12:10:21;3.65;;;2.53;;
60724;SDS011;59881;36.722;-4.462;2023-07-13T12:12:50;8.13;;;2.58;;
60724;SDS011;59881;36.722;-4.462;2023-07-13T12:15:16;5.90;;;2.92;;
60724;SDS011;59881;36.722;-4.462;2023-07-13T12:17:42;4.07;;;2.50;;
60724;SDS011;59881;36.722;-4.462;2023-07-13T12:20:23;3.28;;;2.20;;
60724;SDS011;59881;36.722;-4.462;2023-07-13T12:22:51;5.67;;;2.23;;
60724;SDS011;59881;36.722;-4.462;2023-07-13T12:25:18;3.38;;;2.30;;
60724;SDS011;59881;36.722;-4.462;2023-07-13T12:27:47;4.78;;;1.73;;
60724;SDS011;59881;36.722;-4.462;2023-07-13T12:33:07;3.17;;;2.05;;
60724;SDS011;59881;36.722;-4.462;2023-07-13T12:35:40;4.25;;;2.20;;
60724;SDS011;59881;36.722;-4.462;2023-07-13T12:38:11;7.95;;;1.83;;
60724;SDS011;59881;36.722;-4.462;2023-07-13T12:40:37;6.28;;;2.47;;
60724;SDS011;59881;36.722;-4.462;2023-07-13T12:43:03;3.08;;;1.85;;
60724;SDS011;59881;36.722;-4.462;2023-07-13T12:45:31;6.50;;;2.03;;
60724;SDS011;59881;36.722;-4.462;2023-07-13T12:47:59;4.10;;;2.22;;
60724;SDS011;59881;36.722;-4.462;2023-07-13T12:50:39;2.53;;;1.92;;
60724;SDS011;59881;36.722;-4.462;2023-07-13T12:53:21;4.25;;;1.92;;
60724;SDS011;59881;36.722;-4.462;2023-07-13T13:00:58;4.53;;;2.08;;
60724;SDS011;59881;36.722;-4.462;2023-07-13T13:03:30;2.33;;;1.55;;
60724;SDS011;59881;36.722;-4.462;2023-07-13T13:05:58;2.42;;;1.52;;
60724;SDS011;59881;36.722;-4.462;2023-07-13T13:08:45;6.30;;;2.40;;
60724;SDS011;59881;36.722;-4.462;2023-07-13T13:11:14;6.35;;;2.60;;
60724;SDS011;59881;36.722;-4.462;2023-07-13T13:13:41;4.30;;;1.75;;
60724;SDS011;59881;36.722;-4.462;2023-07-13T13:16:14;4.85;;;2.90;;
60724;SDS011;59881;36.722;-4.462;2023-07-13T13:18:44;3.00;;;1.90;;
60724;SDS011;59881;36.722;-4.462;2023-07-13T13:21:10;2.05;;;1.42;;
60724;SDS011;59881;36.722;-4.462;2023-07-13T13:23:36;1.20;;;1.10;;
60724;SDS011;59881;36.722;-4.462;2023-07-13T13:26:02;4.78;;;2.08;;
60724;SDS011;59881;36.722;-4.462;2023-07-13T13:28:31;2.03;;;1.63;;
60724;SDS011;59881;36.722;-4.462;2023-07-13T13:30:57;2.08;;;1.73;;
60724;SDS011;59881;36.722;-4.462;2023-07-13T13:33:23;6.07;;;2.75;;
60724;SDS011;59881;36.722;-4.462;2023-07-13T13:35:48;5.63;;;2.15;;
60724;SDS011;59881;36.722;-4.462;2023-07-13T13:38:15;5.97;;;1.83;;
60724;SDS011;59881;36.722;-4.462;2023-07-13T13:40:44;1.90;;;1.30;;
60724;SDS011;59881;36.722;-4.462;2023-07-13T13:43:15;2.88;;;1.40;;
60724;SDS011;59881;36.722;-4.462;2023-07-13T13:45:42;2.22;;;1.65;;
60724;SDS011;59881;36.722;-4.462;2023-07-13T13:48:13;7.50;;;2.40;;
60724;SDS011;59881;36.722;-4.462;2023-07-13T13:51:00;2.17;;;1.75;;
60724;SDS011;59881;36.722;-4.462;2023-07-13T13:53:31;2.75;;;1.80;;
60724;SDS011;59881;36.722;-4.462;2023-07-13T13:55:56;6.32;;;1.65;;
60724;SDS011;59881;36.722;-4.462;2023-07-13T13:58:22;4.00;;;2.20;;
60724;SDS011;59881;36.722;-4.462;2023-07-13T14:00:47;3.45;;;2.15;;
60724;SDS011;59881;36.722;-4.462;2023-07-13T14:03:19;2.42;;;1.40;;
60724;SDS011;59881;36.722;-4.462;2023-07-13T14:05:47;2.63;;;1.83;;
60724;SDS011;59881;36.722;-4.462;2023-07-13T14:08:18;1.90;;;1.52;;
60724;SDS011;59881;36.722;-4.462;2023-07-13T14:10:45;3.97;;;1.98;;
60724;SDS011;59881;36.722;-4.462;2023-07-13T14:13:15;1.38;;;1.25;;
60724;SDS011;59881;36.722;-4.462;2023-07-13T14:15:43;2.58;;;1.75;;
60724;SDS011;59881;36.722;-4.462;2023-07-13T14:18:10;2.72;;;1.30;;
60724;SDS011;59881;36.722;-4.462;2023-07-13T14:20:37;2.03;;;1.42;;
60724;SDS011;59881;36.722;-4.462;2023-07-13T14:23:02;4.22;;;1.42;;
60724;SDS011;59881;36.722;-4.462;2023-07-13T14:25:28;3.65;;;1.58;;
60724;SDS011;59881;36.722;-4.462;2023-07-13T14:27:55;1.58;;;0.90;;
60724;SDS011;59881;36.722;-4.462;2023-07-13T14:30:29;2.30;;;1.50;;
60724;SDS011;59881;36.722;-4.462;2023-07-13T14:32:54;3.38;;;1.42;;
60724;SDS011;59881;36.722;-4.462;2023-07-13T14:35:20;12.10;;;2.38;;
60724;SDS011;59881;36.722;-4.462;2023-07-13T14:37:48;1.83;;;1.58;;
60724;SDS011;59881;36.722;-4.462;2023-07-13T14:40:19;2.95;;;1.55;;
60724;SDS011;59881;36.722;-4.462;2023-07-13T14:42:51;1.52;;;0.85;;
60724;SDS011;59881;36.722;-4.462;2023-07-13T14:45:17;6.60;;;1.52;;
60724;SDS011;59881;36.722;-4.462;2023-07-13T14:47:45;2.35;;;1.13;;
60724;SDS011;59881;36.722;-4.462;2023-07-13T14:50:20;3.33;;;1.80;;
60724;SDS011;59881;36.722;-4.462;2023-07-13T14:52:51;4.53;;;1.95;;
60724;SDS011;59881;36.722;-4.462;2023-07-13T14:55:17;1.92;;;1.50;;
60724;SDS011;59881;36.722;-4.462;2023-07-13T14:57:45;6.60;;;2.65;;
60724;SDS011;59881;36.722;-4.462;2023-07-13T15:00:18;2.60;;;1.58;;
60724;SDS011;59881;36.722;-4.462;2023-07-13T15:02:50;1.17;;;0.80;;
60724;SDS011;59881;36.722;-4.462;2023-07-13T15:05:20;7.78;;;1.85;;
60724;SDS011;59881;36.722;-4.462;2023-07-13T15:07:49;1.45;;;0.95;;
60724;SDS011;59881;36.722;-4.462;2023-07-13T15:12:51;1.85;;;1.08;;
60724;SDS011;59881;36.722;-4.462;2023-07-13T15:15:18;5.75;;;2.15;;
60724;SDS011;59881;36.722;-4.462;2023-07-13T15:17:44;2.58;;;1.23;;
60724;SDS011;59881;36.722;-4.462;2023-07-13T15:22:48;3.55;;;1.70;;